sensor_id;sensor_type;location;lat;lon;timestamp;P1;durP1;ratioP1;P2;durP2;ratioP2
71610;SDS011;59459;51.172;6.682;2024-02-04T00:01:25;6.00;;;1.50;;
71610;SDS011;59459;51.172;6.682;2024-02-04T00:03:50;6.70;;;1.93;;
71610;SDS011;59459;51.172;6.682;2024-02-04T00:06:16;7.47;;;2.37;;
71610;SDS011;59459;51.172;6.682;2024-02-04T00:08:41;7.40;;;2.03;;
71610;SDS011;59459;51.172;6.682;2024-02-04T00:11:06;9.00;;;2.70;;
71610;SDS011;59459;51.172;6.682;2024-02-04T00:13:33;8.88;;;3.15;;
71610;SDS011;59459;51.172;6.682;2024-02-04T00:15:59;10.77;;;3.30;;
71610;SDS011;59459;51.172;6.682;2024-02-04T00:18:24;9.17;;;3.43;;
71610;SDS011;59459;51.172;6.682;2024-02-04T00:20:49;12.90;;;4.30;;
71610;SDS011;59459;51.172;6.682;2024-02-04T00:23:15;11.40;;;3.67;;
71610;SDS011;59459;51.172;6.682;2024-02-04T00:25:40;10.50;;;3.97;;
71610;SDS011;59459;51.172;6.682;2024-02-04T00:28:06;11.95;;;4.22;;
71610;SDS011;59459;51.172;6.682;2024-02-04T00:30:31;9.67;;;3.80;;
71610;SDS011;59459;51.172;6.682;2024-02-04T00:32:57;11.40;;;4.10;;
71610;SDS011;59459;51.172;6.682;2024-02-04T00:35:27;12.50;;;4.28;;
71610;SDS011;59459;51.172;6.682;2024-02-04T00:37:53;12.97;;;5.03;;
71610;SDS011;59459;51.172;6.682;2024-02-04T00:40:18;12.30;;;4.07;;
71610;SDS011;59459;51.172;6.682;2024-02-04T00:42:43;10.07;;;3.97;;
71610;SDS011;59459;51.172;6.682;2024-02-04T00:45:08;11.73;;;4.47;;
71610;SDS011;59459;51.172;6.682;2024-02-04T00:47:34;11.57;;;4.50;;
71610;SDS011;59459;51.172;6.682;2024-02-04T00:49:59;12.73;;;4.23;;
71610;SDS011;59459;51.172;6.682;2024-02-04T00:52:24;14.43;;;4.37;;
71610;SDS011;59459;51.172;6.682;2024-02-04T00:54:49;11.77;;;4.33;;
71610;SDS011;59459;51.172;6.682;2024-02-04T00:57:15;13.77;;;4.77;;
71610;SDS011;59459;51.172;6.682;2024-02-04T00:59:40;13.97;;;4.80;;
71610;SDS011;59459;51.172;6.682;2024-02-04T01:02:05;12.13;;;4.00;;
71610;SDS011;59459;51.172;6.682;2024-02-04T01:04:31;12.45;;;4.35;;
71610;SDS011;59459;51.172;6.682;2024-02-04T01:06:56;11.70;;;4.77;;
71610;SDS011;59459;51.172;6.682;2024-02-04T01:09:21;10.17;;;4.37;;
71610;SDS011;59459;51.172;6.682;2024-02-04T01:11:47;12.87;;;3.50;;
71610;SDS011;59459;51.172;6.682;2024-02-04T01:14:12;10.90;;;3.93;;
71610;SDS011;59459;51.172;6.682;2024-02-04T01:16:37;10.37;;;3.50;;
71610;SDS011;59459;51.172;6.682;2024-02-04T01:19:02;12.97;;;3.60;;
71610;SDS011;59459;51.172;6.682;2024-02-04T01:21:28;9.00;;;3.40;;
71610;SDS011;59459;51.172;6.682;2024-02-04T01:23:54;12.77;;;4.17;;
71610;SDS011;59459;51.172;6.682;2024-02-04T01:26:19;13.33;;;3.90;;
71610;SDS011;59459;51.172;6.682;2024-02-04T01:28:45;11.60;;;4.45;;
71610;SDS011;59459;51.172;6.682;2024-02-04T01:31:10;10.53;;;4.07;;
71610;SDS011;59459;51.172;6.682;2024-02-04T01:33:35;10.97;;;3.67;;
71610;SDS011;59459;51.172;6.682;2024-02-04T01:36:01;10.37;;;3.87;;
71610;SDS011;59459;51.172;6.682;2024-02-04T01:38:26;9.90;;;3.17;;
71610;SDS011;59459;51.172;6.682;2024-02-04T01:40:51;10.53;;;3.67;;
71610;SDS011;59459;51.172;6.682;2024-02-04T01:43:18;11.95;;;4.15;;
71610;SDS011;59459;51.172;6.682;2024-02-04T01:45:46;11.82;;;4.40;;
71610;SDS011;59459;51.172;6.682;2024-02-04T01:48:11;10.97;;;4.00;;
71610;SDS011;59459;51.172;6.682;2024-02-04T01:50:39;9.65;;;3.42;;
71610;SDS011;59459;51.172;6.682;2024-02-04T01:53:04;11.10;;;3.70;;
71610;SDS011;59459;51.172;6.682;2024-02-04T01:55:29;11.63;;;3.67;;
71610;SDS011;59459;51.172;6.682;2024-02-04T01:57:55;12.50;;;3.90;;
71610;SDS011;59459;51.172;6.682;2024-02-04T02:00:20;12.90;;;3.90;;
71610;SDS011;59459;51.172;6.682;2024-02-04T02:02:46;10.67;;;3.83;;
71610;SDS011;59459;51.172;6.682;2024-02-04T02:05:11;10.70;;;3.67;;
71610;SDS011;59459;51.172;6.682;2024-02-04T02:07:36;10.33;;;3.73;;
71610;SDS011;59459;51.172;6.682;2024-02-04T02:10:02;13.33;;;4.37;;
71610;SDS011;59459;51.172;6.682;2024-02-04T02:12:31;11.33;;;3.60;;
71610;SDS011;59459;51.172;6.682;2024-02-04T02:15:18;10.32;;;2.97;;
71610;SDS011;59459;51.172;6.682;2024-02-04T02:17:48;10.63;;;3.25;;
71610;SDS011;59459;51.172;6.682;2024-02-04T02:20:41;12.18;;;4.03;;
71610;SDS011;59459;51.172;6.682;2024-02-04T02:23:09;11.38;;;4.00;;
71610;SDS011;59459;51.172;6.682;2024-02-04T02:25:35;10.63;;;3.17;;
71610;SDS011;59459;51.172;6.682;2024-02-04T02:28:01;11.38;;;3.70;;
71610;SDS011;59459;51.172;6.682;2024-02-04T02:30:26;12.80;;;4.10;;
71610;SDS011;59459;51.172;6.682;2024-02-04T02:32:51;9.20;;;3.30;;
71610;SDS011;59459;51.172;6.682;2024-02-04T02:35:17;11.17;;;3.37;;
71610;SDS011;59459;51.172;6.682;2024-02-04T02:37:46;11.17;;;3.70;;
71610;SDS011;59459;51.172;6.682;2024-02-04T02:40:14;10.60;;;3.23;;
71610;SDS011;59459;51.172;6.682;2024-02-04T02:42:42;10.88;;;3.20;;
71610;SDS011;59459;51.172;6.682;2024-02-04T02:45:08;10.23;;;3.15;;
71610;SDS011;59459;51.172;6.682;2024-02-04T02:47:34;11.23;;;3.45;;
71610;SDS011;59459;51.172;6.682;2024-02-04T02:50:00;11.73;;;3.93;;
71610;SDS011;59459;51.172;6.682;2024-02-04T02:52:25;10.23;;;3.38;;
71610;SDS011;59459;51.172;6.682;2024-02-04T02:54:50;9.40;;;3.00;;
71610;SDS011;59459;51.172;6.682;2024-02-04T02:57:16;9.67;;;3.10;;
71610;SDS011;59459;51.172;6.682;2024-02-04T02:59:41;9.70;;;3.50;;
71610;SDS011;59459;51.172;6.682;2024-02-04T03:02:06;11.03;;;3.87;;
71610;SDS011;59459;51.172;6.682;2024-02-04T03:04:31;11.27;;;3.57;;
71610;SDS011;59459;51.172;6.682;2024-02-04T03:06:57;12.83;;;4.03;;
71610;SDS011;59459;51.172;6.682;2024-02-04T03:09:22;11.97;;;3.70;;
71610;SDS011;59459;51.172;6.682;2024-02-04T03:11:47;9.10;;;2.70;;
71610;SDS011;59459;51.172;6.682;2024-02-04T03:14:14;11.23;;;3.97;;
71610;SDS011;59459;51.172;6.682;2024-02-04T03:16:39;10.52;;;3.65;;
71610;SDS011;59459;51.172;6.682;2024-02-04T03:19:07;11.87;;;3.77;;
71610;SDS011;59459;51.172;6.682;2024-02-04T03:21:32;10.75;;;3.22;;
71610;SDS011;59459;51.172;6.682;2024-02-04T03:23:57;9.93;;;3.10;;
71610;SDS011;59459;51.172;6.682;2024-02-04T03:26:23;11.73;;;3.27;;
71610;SDS011;59459;51.172;6.682;2024-02-04T03:28:48;11.23;;;3.07;;
71610;SDS011;59459;51.172;6.682;2024-02-04T03:31:20;11.73;;;3.87;;
71610;SDS011;59459;51.172;6.682;2024-02-04T03:33:46;11.90;;;3.97;;
71610;SDS011;59459;51.172;6.682;2024-02-04T03:36:11;10.73;;;3.70;;
71610;SDS011;59459;51.172;6.682;2024-02-04T03:38:36;12.10;;;3.83;;
71610;SDS011;59459;51.172;6.682;2024-02-04T03:41:02;13.77;;;4.10;;
71610;SDS011;59459;51.172;6.682;2024-02-04T03:43:27;13.13;;;4.27;;
71610;SDS011;59459;51.172;6.682;2024-02-04T03:45:52;13.37;;;4.87;;
71610;SDS011;59459;51.172;6.682;2024-02-04T03:48:17;15.03;;;4.67;;
71610;SDS011;59459;51.172;6.682;2024-02-04T03:50:42;15.63;;;5.47;;
71610;SDS011;59459;51.172;6.682;2024-02-04T03:53:08;15.63;;;5.22;;
71610;SDS011;59459;51.172;6.682;2024-02-04T03:55:33;12.63;;;4.20;;
71610;SDS011;59459;51.172;6.682;2024-02-04T03:57:58;15.30;;;5.07;;
71610;SDS011;59459;51.172;6.682;2024-02-04T04:00:24;19.23;;;6.07;;
71610;SDS011;59459;51.172;6.682;2024-02-04T04:02:49;17.73;;;5.83;;
71610;SDS011;59459;51.172;6.682;2024-02-04T04:05:14;17.33;;;5.60;;
71610;SDS011;59459;51.172;6.682;2024-02-04T04:07:40;17.43;;;6.07;;
71610;SDS011;59459;51.172;6.682;2024-02-04T04:10:05;18.77;;;6.83;;
71610;SDS011;59459;51.172;6.682;2024-02-04T04:12:30;13.85;;;4.65;;
71610;SDS011;59459;51.172;6.682;2024-02-04T04:14:56;17.80;;;6.53;;
71610;SDS011;59459;51.172;6.682;2024-02-04T04:17:21;15.80;;;6.20;;
71610;SDS011;59459;51.172;6.682;2024-02-04T04:19:46;16.47;;;5.60;;
71610;SDS011;59459;51.172;6.682;2024-02-04T04:22:11;16.87;;;5.77;;
71610;SDS011;59459;51.172;6.682;2024-02-04T04:24:37;15.50;;;5.77;;
71610;SDS011;59459;51.172;6.682;2024-02-04T04:27:03;15.27;;;5.88;;
71610;SDS011;59459;51.172;6.682;2024-02-04T04:29:28;17.40;;;5.47;;
71610;SDS011;59459;51.172;6.682;2024-02-04T04:31:53;12.00;;;4.27;;
71610;SDS011;59459;51.172;6.682;2024-02-04T04:34:18;14.27;;;5.00;;
71610;SDS011;59459;51.172;6.682;2024-02-04T04:36:44;14.33;;;5.07;;
71610;SDS011;59459;51.172;6.682;2024-02-04T04:39:10;15.75;;;4.78;;
71610;SDS011;59459;51.172;6.682;2024-02-04T04:41:35;14.37;;;4.87;;
71610;SDS011;59459;51.172;6.682;2024-02-04T04:44:00;14.33;;;5.00;;
71610;SDS011;59459;51.172;6.682;2024-02-04T04:46:26;12.80;;;4.80;;
71610;SDS011;59459;51.172;6.682;2024-02-04T04:48:51;13.93;;;4.67;;
71610;SDS011;59459;51.172;6.682;2024-02-04T04:51:17;15.57;;;5.50;;
71610;SDS011;59459;51.172;6.682;2024-02-04T04:53:42;19.50;;;6.77;;
71610;SDS011;59459;51.172;6.682;2024-02-04T04:56:07;17.90;;;5.90;;
71610;SDS011;59459;51.172;6.682;2024-02-04T04:58:33;16.97;;;5.90;;
71610;SDS011;59459;51.172;6.682;2024-02-04T05:00:58;14.63;;;4.77;;
71610;SDS011;59459;51.172;6.682;2024-02-04T05:03:23;17.40;;;6.80;;
71610;SDS011;59459;51.172;6.682;2024-02-04T05:05:48;18.70;;;6.23;;
71610;SDS011;59459;51.172;6.682;2024-02-04T05:08:14;19.53;;;6.50;;
71610;SDS011;59459;51.172;6.682;2024-02-04T05:10:39;19.80;;;6.63;;
71610;SDS011;59459;51.172;6.682;2024-02-04T05:13:04;17.73;;;6.23;;
71610;SDS011;59459;51.172;6.682;2024-02-04T05:15:29;23.30;;;8.13;;
71610;SDS011;59459;51.172;6.682;2024-02-04T05:17:55;20.30;;;7.77;;
71610;SDS011;59459;51.172;6.682;2024-02-04T05:20:20;24.30;;;8.03;;
71610;SDS011;59459;51.172;6.682;2024-02-04T05:22:45;18.30;;;7.07;;
71610;SDS011;59459;51.172;6.682;2024-02-04T05:25:10;19.90;;;6.93;;
71610;SDS011;59459;51.172;6.682;2024-02-04T05:27:35;22.57;;;7.73;;
71610;SDS011;59459;51.172;6.682;2024-02-04T05:30:01;19.93;;;7.10;;
71610;SDS011;59459;51.172;6.682;2024-02-04T05:32:27;22.40;;;6.57;;
71610;SDS011;59459;51.172;6.682;2024-02-04T05:34:52;17.10;;;6.30;;
71610;SDS011;59459;51.172;6.682;2024-02-04T05:37:17;20.27;;;6.97;;
71610;SDS011;59459;51.172;6.682;2024-02-04T05:39:43;19.47;;;7.10;;
71610;SDS011;59459;51.172;6.682;2024-02-04T05:42:08;21.80;;;6.17;;
71610;SDS011;59459;51.172;6.682;2024-02-04T05:44:33;17.50;;;5.70;;
71610;SDS011;59459;51.172;6.682;2024-02-04T05:46:58;16.80;;;6.17;;
71610;SDS011;59459;51.172;6.682;2024-02-04T05:49:23;19.40;;;6.33;;
71610;SDS011;59459;51.172;6.682;2024-02-04T05:51:49;18.30;;;5.97;;
71610;SDS011;59459;51.172;6.682;2024-02-04T05:54:14;19.00;;;6.53;;
71610;SDS011;59459;51.172;6.682;2024-02-04T05:56:39;17.20;;;5.70;;
71610;SDS011;59459;51.172;6.682;2024-02-04T05:59:04;15.60;;;6.20;;
71610;SDS011;59459;51.172;6.682;2024-02-04T06:01:30;18.90;;;5.87;;
71610;SDS011;59459;51.172;6.682;2024-02-04T06:03:55;19.50;;;6.17;;
71610;SDS011;59459;51.172;6.682;2024-02-04T06:06:20;20.37;;;5.70;;
71610;SDS011;59459;51.172;6.682;2024-02-04T06:08:46;20.00;;;6.87;;
71610;SDS011;59459;51.172;6.682;2024-02-04T06:11:12;17.80;;;6.13;;
71610;SDS011;59459;51.172;6.682;2024-02-04T06:13:41;19.60;;;6.83;;
71610;SDS011;59459;51.172;6.682;2024-02-04T06:16:06;21.73;;;8.27;;
71610;SDS011;59459;51.172;6.682;2024-02-04T06:18:31;21.67;;;7.53;;
71610;SDS011;59459;51.172;6.682;2024-02-04T06:20:57;19.20;;;7.13;;
71610;SDS011;59459;51.172;6.682;2024-02-04T06:23:22;18.53;;;6.20;;
71610;SDS011;59459;51.172;6.682;2024-02-04T06:25:47;18.53;;;7.33;;
71610;SDS011;59459;51.172;6.682;2024-02-04T06:28:13;19.33;;;6.45;;
71610;SDS011;59459;51.172;6.682;2024-02-04T06:30:38;16.00;;;5.60;;
71610;SDS011;59459;51.172;6.682;2024-02-04T06:33:03;14.57;;;5.57;;
71610;SDS011;59459;51.172;6.682;2024-02-04T06:35:28;18.40;;;5.53;;
71610;SDS011;59459;51.172;6.682;2024-02-04T06:37:54;16.50;;;5.33;;
71610;SDS011;59459;51.172;6.682;2024-02-04T06:40:19;13.63;;;4.50;;
71610;SDS011;59459;51.172;6.682;2024-02-04T06:42:44;15.73;;;4.77;;
71610;SDS011;59459;51.172;6.682;2024-02-04T06:45:09;13.80;;;5.60;;
71610;SDS011;59459;51.172;6.682;2024-02-04T06:47:35;13.50;;;5.20;;
71610;SDS011;59459;51.172;6.682;2024-02-04T06:50:00;14.13;;;4.77;;
71610;SDS011;59459;51.172;6.682;2024-02-04T06:52:28;13.95;;;4.57;;
71610;SDS011;59459;51.172;6.682;2024-02-04T06:54:53;13.33;;;3.93;;
71610;SDS011;59459;51.172;6.682;2024-02-04T06:57:18;11.00;;;3.90;;
71610;SDS011;59459;51.172;6.682;2024-02-04T06:59:43;13.73;;;4.53;;
71610;SDS011;59459;51.172;6.682;2024-02-04T07:02:09;10.00;;;3.30;;
71610;SDS011;59459;51.172;6.682;2024-02-04T07:04:34;13.80;;;3.73;;
71610;SDS011;59459;51.172;6.682;2024-02-04T07:06:59;10.13;;;3.23;;
71610;SDS011;59459;51.172;6.682;2024-02-04T07:09:24;9.53;;;3.57;;
71610;SDS011;59459;51.172;6.682;2024-02-04T07:11:49;12.10;;;3.47;;
71610;SDS011;59459;51.172;6.682;2024-02-04T07:14:15;11.53;;;4.23;;
71610;SDS011;59459;51.172;6.682;2024-02-04T07:16:40;9.37;;;2.97;;
71610;SDS011;59459;51.172;6.682;2024-02-04T07:19:05;11.57;;;3.73;;
71610;SDS011;59459;51.172;6.682;2024-02-04T07:21:31;11.53;;;3.67;;
71610;SDS011;59459;51.172;6.682;2024-02-04T07:23:56;10.20;;;3.33;;
71610;SDS011;59459;51.172;6.682;2024-02-04T07:26:22;9.47;;;2.90;;
71610;SDS011;59459;51.172;6.682;2024-02-04T07:28:47;16.53;;;3.80;;
71610;SDS011;59459;51.172;6.682;2024-02-04T07:31:12;9.33;;;2.93;;
71610;SDS011;59459;51.172;6.682;2024-02-04T07:33:37;10.63;;;4.00;;
71610;SDS011;59459;51.172;6.682;2024-02-04T07:36:02;10.47;;;2.73;;
71610;SDS011;59459;51.172;6.682;2024-02-04T07:38:28;11.07;;;3.07;;
71610;SDS011;59459;51.172;6.682;2024-02-04T07:40:53;9.03;;;2.70;;
71610;SDS011;59459;51.172;6.682;2024-02-04T07:43:20;11.85;;;3.58;;
71610;SDS011;59459;51.172;6.682;2024-02-04T07:45:45;10.97;;;3.27;;
71610;SDS011;59459;51.172;6.682;2024-02-04T07:48:11;11.17;;;3.53;;
71610;SDS011;59459;51.172;6.682;2024-02-04T07:50:36;12.40;;;4.37;;
71610;SDS011;59459;51.172;6.682;2024-02-04T07:53:01;11.43;;;3.30;;
71610;SDS011;59459;51.172;6.682;2024-02-04T07:55:27;11.43;;;3.97;;
71610;SDS011;59459;51.172;6.682;2024-02-04T07:57:52;11.13;;;3.60;;
71610;SDS011;59459;51.172;6.682;2024-02-04T08:00:17;9.80;;;3.30;;
71610;SDS011;59459;51.172;6.682;2024-02-04T08:02:46;9.93;;;3.30;;
71610;SDS011;59459;51.172;6.682;2024-02-04T08:05:12;10.48;;;3.05;;
71610;SDS011;59459;51.172;6.682;2024-02-04T08:07:37;9.60;;;2.50;;
71610;SDS011;59459;51.172;6.682;2024-02-04T08:10:02;9.17;;;2.83;;
71610;SDS011;59459;51.172;6.682;2024-02-04T08:12:27;10.40;;;2.47;;
71610;SDS011;59459;51.172;6.682;2024-02-04T08:14:53;7.87;;;2.70;;
71610;SDS011;59459;51.172;6.682;2024-02-04T08:17:18;7.07;;;1.90;;
71610;SDS011;59459;51.172;6.682;2024-02-04T08:19:43;7.40;;;1.90;;
71610;SDS011;59459;51.172;6.682;2024-02-04T08:22:08;6.63;;;1.87;;
71610;SDS011;59459;51.172;6.682;2024-02-04T08:24:33;7.77;;;1.97;;
71610;SDS011;59459;51.172;6.682;2024-02-04T08:26:59;7.80;;;1.93;;
71610;SDS011;59459;51.172;6.682;2024-02-04T08:29:24;8.00;;;2.85;;
71610;SDS011;59459;51.172;6.682;2024-02-04T08:31:51;6.57;;;2.03;;
71610;SDS011;59459;51.172;6.682;2024-02-04T08:34:17;9.20;;;2.77;;
71610;SDS011;59459;51.172;6.682;2024-02-04T08:36:42;8.83;;;2.97;;
71610;SDS011;59459;51.172;6.682;2024-02-04T08:39:07;10.63;;;2.60;;
71610;SDS011;59459;51.172;6.682;2024-02-04T08:41:32;8.47;;;2.37;;
71610;SDS011;59459;51.172;6.682;2024-02-04T08:43:58;7.30;;;2.77;;
71610;SDS011;59459;51.172;6.682;2024-02-04T08:46:23;9.00;;;2.83;;
71610;SDS011;59459;51.172;6.682;2024-02-04T08:48:48;9.33;;;2.93;;
71610;SDS011;59459;51.172;6.682;2024-02-04T08:51:13;8.77;;;2.87;;
71610;SDS011;59459;51.172;6.682;2024-02-04T08:53:41;10.13;;;2.90;;
71610;SDS011;59459;51.172;6.682;2024-02-04T08:56:06;11.93;;;2.67;;
71610;SDS011;59459;51.172;6.682;2024-02-04T08:58:31;8.07;;;3.37;;
71610;SDS011;59459;51.172;6.682;2024-02-04T09:00:56;9.60;;;3.20;;
71610;SDS011;59459;51.172;6.682;2024-02-04T09:03:22;8.87;;;2.33;;
71610;SDS011;59459;51.172;6.682;2024-02-04T09:05:48;10.05;;;2.47;;
71610;SDS011;59459;51.172;6.682;2024-02-04T09:08:13;10.30;;;2.73;;
71610;SDS011;59459;51.172;6.682;2024-02-04T09:10:38;13.30;;;3.77;;
71610;SDS011;59459;51.172;6.682;2024-02-04T09:13:03;8.03;;;3.13;;
71610;SDS011;59459;51.172;6.682;2024-02-04T09:15:29;9.33;;;3.63;;
71610;SDS011;59459;51.172;6.682;2024-02-04T09:17:54;9.60;;;2.83;;
71610;SDS011;59459;51.172;6.682;2024-02-04T09:20:19;10.83;;;3.03;;
71610;SDS011;59459;51.172;6.682;2024-02-04T09:22:44;8.73;;;2.70;;
71610;SDS011;59459;51.172;6.682;2024-02-04T09:25:09;8.97;;;2.83;;
71610;SDS011;59459;51.172;6.682;2024-02-04T09:27:35;9.00;;;2.87;;
71610;SDS011;59459;51.172;6.682;2024-02-04T09:30:00;8.63;;;2.80;;
71610;SDS011;59459;51.172;6.682;2024-02-04T09:32:26;11.53;;;3.60;;
71610;SDS011;59459;51.172;6.682;2024-02-04T09:34:51;9.93;;;2.60;;
71610;SDS011;59459;51.172;6.682;2024-02-04T09:37:16;9.10;;;3.00;;
71610;SDS011;59459;51.172;6.682;2024-02-04T09:39:41;9.27;;;3.47;;
71610;SDS011;59459;51.172;6.682;2024-02-04T09:42:07;13.20;;;3.87;;
71610;SDS011;59459;51.172;6.682;2024-02-04T09:44:32;10.53;;;3.10;;
71610;SDS011;59459;51.172;6.682;2024-02-04T09:46:58;10.63;;;3.40;;
71610;SDS011;59459;51.172;6.682;2024-02-04T09:49:25;9.50;;;2.70;;
71610;SDS011;59459;51.172;6.682;2024-02-04T09:51:51;9.13;;;3.75;;
71610;SDS011;59459;51.172;6.682;2024-02-04T09:54:16;10.13;;;3.53;;
71610;SDS011;59459;51.172;6.682;2024-02-04T09:56:43;12.55;;;3.65;;
71610;SDS011;59459;51.172;6.682;2024-02-04T09:59:08;9.33;;;3.40;;
71610;SDS011;59459;51.172;6.682;2024-02-04T10:01:34;9.27;;;3.00;;
71610;SDS011;59459;51.172;6.682;2024-02-04T10:04:00;9.20;;;3.33;;
71610;SDS011;59459;51.172;6.682;2024-02-04T10:06:25;9.27;;;2.77;;
71610;SDS011;59459;51.172;6.682;2024-02-04T10:08:50;11.57;;;3.10;;
71610;SDS011;59459;51.172;6.682;2024-02-04T10:11:16;9.80;;;3.30;;
71610;SDS011;59459;51.172;6.682;2024-02-04T10:13:47;12.43;;;4.40;;
71610;SDS011;59459;51.172;6.682;2024-02-04T10:16:13;12.50;;;3.60;;
71610;SDS011;59459;51.172;6.682;2024-02-04T10:18:42;9.73;;;3.20;;
71610;SDS011;59459;51.172;6.682;2024-02-04T10:21:14;12.30;;;3.60;;
71610;SDS011;59459;51.172;6.682;2024-02-04T10:23:39;11.30;;;3.50;;
71610;SDS011;59459;51.172;6.682;2024-02-04T10:26:04;9.43;;;3.00;;
71610;SDS011;59459;51.172;6.682;2024-02-04T10:28:30;11.10;;;3.60;;
71610;SDS011;59459;51.172;6.682;2024-02-04T10:30:55;10.57;;;2.70;;
71610;SDS011;59459;51.172;6.682;2024-02-04T10:33:20;11.27;;;3.63;;
71610;SDS011;59459;51.172;6.682;2024-02-04T10:35:46;13.17;;;3.83;;
71610;SDS011;59459;51.172;6.682;2024-02-04T10:38:11;13.17;;;4.17;;
71610;SDS011;59459;51.172;6.682;2024-02-04T10:40:36;10.03;;;3.60;;
71610;SDS011;59459;51.172;6.682;2024-02-04T10:43:03;11.60;;;4.27;;
71610;SDS011;59459;51.172;6.682;2024-02-04T10:45:30;11.23;;;4.00;;
71610;SDS011;59459;51.172;6.682;2024-02-04T10:47:57;11.82;;;4.55;;
71610;SDS011;59459;51.172;6.682;2024-02-04T10:50:25;11.27;;;3.60;;
71610;SDS011;59459;51.172;6.682;2024-02-04T10:52:52;15.10;;;4.18;;
71610;SDS011;59459;51.172;6.682;2024-02-04T10:55:18;11.87;;;3.70;;
71610;SDS011;59459;51.172;6.682;2024-02-04T10:57:46;12.82;;;4.70;;
71610;SDS011;59459;51.172;6.682;2024-02-04T11:00:12;13.13;;;4.00;;
71610;SDS011;59459;51.172;6.682;2024-02-04T11:02:38;10.97;;;4.17;;
71610;SDS011;59459;51.172;6.682;2024-02-04T11:05:04;12.50;;;3.70;;
71610;SDS011;59459;51.172;6.682;2024-02-04T11:07:31;9.27;;;3.08;;
71610;SDS011;59459;51.172;6.682;2024-02-04T11:09:57;9.77;;;4.05;;
71610;SDS011;59459;51.172;6.682;2024-02-04T11:12:22;9.73;;;3.03;;
71610;SDS011;59459;51.172;6.682;2024-02-04T11:14:49;10.18;;;3.67;;
71610;SDS011;59459;51.172;6.682;2024-02-04T11:27:43;9.45;;;3.20;;
71610;SDS011;59459;51.172;6.682;2024-02-04T11:30:09;11.67;;;3.37;;
71610;SDS011;59459;51.172;6.682;2024-02-04T11:32:35;11.35;;;3.90;;
71610;SDS011;59459;51.172;6.682;2024-02-04T11:35:00;12.50;;;3.53;;
71610;SDS011;59459;51.172;6.682;2024-02-04T11:37:27;10.45;;;2.97;;
71610;SDS011;59459;51.172;6.682;2024-02-04T11:39:53;10.97;;;3.70;;
71610;SDS011;59459;51.172;6.682;2024-02-04T11:42:18;9.95;;;3.05;;
71610;SDS011;59459;51.172;6.682;2024-02-04T11:44:45;12.43;;;3.73;;
71610;SDS011;59459;51.172;6.682;2024-02-04T11:47:10;8.90;;;3.47;;
71610;SDS011;59459;51.172;6.682;2024-02-04T11:49:36;10.57;;;2.95;;
71610;SDS011;59459;51.172;6.682;2024-02-04T11:52:01;9.63;;;3.97;;
71610;SDS011;59459;51.172;6.682;2024-02-04T11:54:26;11.20;;;3.80;;
71610;SDS011;59459;51.172;6.682;2024-02-04T11:56:52;10.97;;;3.90;;
71610;SDS011;59459;51.172;6.682;2024-02-04T11:59:24;10.95;;;3.63;;
71610;SDS011;59459;51.172;6.682;2024-02-04T12:01:53;11.30;;;3.80;;
71610;SDS011;59459;51.172;6.682;2024-02-04T12:04:18;12.80;;;3.70;;
71610;SDS011;59459;51.172;6.682;2024-02-04T12:06:43;12.63;;;4.17;;
71610;SDS011;59459;51.172;6.682;2024-02-04T12:09:09;9.70;;;3.57;;
71610;SDS011;59459;51.172;6.682;2024-02-04T12:11:38;13.77;;;4.83;;
71610;SDS011;59459;51.172;6.682;2024-02-04T12:14:04;12.55;;;4.28;;
71610;SDS011;59459;51.172;6.682;2024-02-04T12:16:30;10.35;;;3.67;;
71610;SDS011;59459;51.172;6.682;2024-02-04T12:18:57;9.55;;;3.60;;
71610;SDS011;59459;51.172;6.682;2024-02-04T12:21:22;12.80;;;4.10;;
71610;SDS011;59459;51.172;6.682;2024-02-04T12:23:48;10.77;;;3.67;;
71610;SDS011;59459;51.172;6.682;2024-02-04T12:26:13;9.82;;;3.30;;
71610;SDS011;59459;51.172;6.682;2024-02-04T12:28:39;10.00;;;3.53;;
71610;SDS011;59459;51.172;6.682;2024-02-04T12:31:04;9.67;;;3.07;;
71610;SDS011;59459;51.172;6.682;2024-02-04T12:33:30;10.07;;;3.57;;
71610;SDS011;59459;51.172;6.682;2024-02-04T12:35:55;8.77;;;3.22;;
71610;SDS011;59459;51.172;6.682;2024-02-04T12:38:21;8.23;;;3.50;;
71610;SDS011;59459;51.172;6.682;2024-02-04T12:40:46;8.40;;;3.03;;
71610;SDS011;59459;51.172;6.682;2024-02-04T12:43:11;9.43;;;3.30;;
71610;SDS011;59459;51.172;6.682;2024-02-04T12:45:36;8.20;;;3.07;;
71610;SDS011;59459;51.172;6.682;2024-02-04T12:48:02;7.97;;;3.37;;
71610;SDS011;59459;51.172;6.682;2024-02-04T12:50:28;7.70;;;2.78;;
71610;SDS011;59459;51.172;6.682;2024-02-04T12:55:27;8.90;;;2.78;;
71610;SDS011;59459;51.172;6.682;2024-02-04T12:58:09;8.88;;;2.97;;
71610;SDS011;59459;51.172;6.682;2024-02-04T13:00:37;7.63;;;2.83;;
71610;SDS011;59459;51.172;6.682;2024-02-04T13:03:08;8.83;;;3.30;;
71610;SDS011;59459;51.172;6.682;2024-02-04T13:05:34;10.30;;;3.55;;
71610;SDS011;59459;51.172;6.682;2024-02-04T13:08:00;9.10;;;3.47;;
71610;SDS011;59459;51.172;6.682;2024-02-04T13:10:29;9.40;;;3.72;;
71610;SDS011;59459;51.172;6.682;2024-02-04T13:12:59;9.48;;;3.65;;
71610;SDS011;59459;51.172;6.682;2024-02-04T13:15:26;9.68;;;3.97;;
71610;SDS011;59459;51.172;6.682;2024-02-04T13:17:51;9.07;;;3.03;;
71610;SDS011;59459;51.172;6.682;2024-02-04T13:20:16;10.77;;;3.43;;
71610;SDS011;59459;51.172;6.682;2024-02-04T13:22:41;12.10;;;4.60;;
71610;SDS011;59459;51.172;6.682;2024-02-04T13:25:07;10.80;;;4.33;;
71610;SDS011;59459;51.172;6.682;2024-02-04T13:27:32;10.30;;;4.40;;
71610;SDS011;59459;51.172;6.682;2024-02-04T13:29:57;13.90;;;4.27;;
71610;SDS011;59459;51.172;6.682;2024-02-04T13:32:22;9.83;;;3.80;;
71610;SDS011;59459;51.172;6.682;2024-02-04T13:34:47;13.43;;;4.03;;
71610;SDS011;59459;51.172;6.682;2024-02-04T13:37:14;10.90;;;3.00;;
71610;SDS011;59459;51.172;6.682;2024-02-04T13:39:39;9.20;;;3.80;;
71610;SDS011;59459;51.172;6.682;2024-02-04T13:42:04;7.63;;;3.07;;
71610;SDS011;59459;51.172;6.682;2024-02-04T13:44:32;11.00;;;3.57;;
71610;SDS011;59459;51.172;6.682;2024-02-04T13:46:58;7.47;;;3.27;;
71610;SDS011;59459;51.172;6.682;2024-02-04T13:49:23;7.80;;;3.13;;
71610;SDS011;59459;51.172;6.682;2024-02-04T13:51:48;9.37;;;3.73;;
71610;SDS011;59459;51.172;6.682;2024-02-04T13:54:13;10.50;;;3.47;;
71610;SDS011;59459;51.172;6.682;2024-02-04T13:56:41;9.40;;;2.78;;
71610;SDS011;59459;51.172;6.682;2024-02-04T13:59:07;11.57;;;3.63;;
71610;SDS011;59459;51.172;6.682;2024-02-04T14:01:32;11.70;;;3.97;;
71610;SDS011;59459;51.172;6.682;2024-02-04T14:03:57;9.00;;;3.37;;
71610;SDS011;59459;51.172;6.682;2024-02-04T14:06:22;8.10;;;3.17;;
71610;SDS011;59459;51.172;6.682;2024-02-04T14:08:48;8.13;;;3.07;;
71610;SDS011;59459;51.172;6.682;2024-02-04T14:11:13;9.10;;;3.23;;
71610;SDS011;59459;51.172;6.682;2024-02-04T14:13:39;8.13;;;2.90;;
71610;SDS011;59459;51.172;6.682;2024-02-04T14:16:04;8.17;;;2.87;;
71610;SDS011;59459;51.172;6.682;2024-02-04T14:18:31;8.85;;;3.55;;
71610;SDS011;59459;51.172;6.682;2024-02-04T14:20:56;8.07;;;2.57;;
71610;SDS011;59459;51.172;6.682;2024-02-04T14:23:21;8.63;;;3.80;;
71610;SDS011;59459;51.172;6.682;2024-02-04T14:25:46;7.33;;;2.50;;
71610;SDS011;59459;51.172;6.682;2024-02-04T14:28:12;8.03;;;2.33;;
71610;SDS011;59459;51.172;6.682;2024-02-04T14:30:37;6.23;;;2.30;;
71610;SDS011;59459;51.172;6.682;2024-02-04T14:33:02;6.47;;;2.40;;
71610;SDS011;59459;51.172;6.682;2024-02-04T14:35:28;6.23;;;2.17;;
71610;SDS011;59459;51.172;6.682;2024-02-04T14:37:53;6.20;;;2.87;;
71610;SDS011;59459;51.172;6.682;2024-02-04T14:40:18;7.57;;;2.53;;
71610;SDS011;59459;51.172;6.682;2024-02-04T14:42:43;8.03;;;3.17;;